Strona główna
METAR-TAF:

METAR-TAF

Lotnisko :

Port lotniczy Dżibuti-Ambouli

Dżibuti, Dżibuti

Szerokość geograficzna: 11-33N, Długość geograficzna: 043-10E, wysokość: 49 m

Aktualna obserwacja pogody

Raport powstał 2 godziny i 18 minut temu, godzina 04:00 UTC
Wiatr 4 kt od zachodnio-południowy zachód
Temperatura 26°C
Wilgotność 79%
Ciśnienie 1016 hPa
Widzialność 10 km lub więcej
Mało chmury na wysokości 2000 ft

METAR: HDAM 100400Z 24004KT 9999 FEW020 26/22 Q1016

czas: 09:18 (06:18 UTC)

Prognoza

Raport powstał 1 godzina i 18 minut temu, godzina 05:00 UTC
Prognoza ważna od 10 godzina 06 UTC do 11 godzina 06 UTC
Wiatr 10 kt od wschód
Rozproszone chmury na wysokości 2300 ft
Stopniowe zmiany
od 10 godzina 15 UTC do 10 godzina 18 UTC
Wiatr 5 kt z kierunków zmiennych
Mało chmury na wysokości 2000 ft
Stopniowe zmiany
od 11 godzina 00 UTC do 11 godzina 06 UTC
Wiatr kt od północ
Rozproszone chmury na wysokości 2000 ft

TAF: HDAM 100500Z 1006/1106 08010KT 9/9 SCT023 BECMG 1015/1018 VRB05KT FEW020 BECMG 1100/1106 00000KT SCT020

Obserwacja i prognoza pogody dla ponad 4000 lotnisk (raport METAR i TAF).

Dostępne stacje oznaczono żółtymi i czerwonymi punktami na mapie.

Najedź kursorem aby zobaczyć nazwę stacji.

Kliknij aby zobaczyć obserwacje i prognozy pogody.

Aby zmienić mapę: kliknij na zielony przycisk z czarnym krzyżykiem, aby powiększyć; na zielony przycisk z myślnikiem, aby pomniejszyć; na zielone strzałki, aby przejść do map sąsiednich.


METAR-TAF: